Time;durP1;ratioP1;P1;durP2;ratioP2;P2;SDS_P1;SDS_P2;PMS_P1;PMS_P2;Temp;Humidity;BMP_temperature;BMP_pressure;BME280_temperature;BME280_humidity;BME280_pressure;Samples;Min_cycle;Max_cycle;Signal;HPM_P1;HPM_P2
2022/01/20 00:00:20;;;;;;;;;12.25;11.00;;;;;11.99;42.21;98176.00;6296509;22;103961;-79
2022/01/20 00:02:56;;;;;;;;;13.75;11.25;;;;;11.98;42.60;98168.06;6304329;22;102103;-79
2022/01/20 00:05:38;;;;;;;;;14.75;11.50;;;;;11.99;42.14;98165.16;6304012;22;102746;-79
2022/01/20 00:08:27;;;;;;;;;13.75;12.75;;;;;11.97;41.95;98161.03;6300881;22;104335;-79
2022/01/20 00:27:30;;;;;;;;;10.75;9.00;;;;;11.87;42.70;98156.09;6301414;22;102284;-79
2022/01/20 00:37:15;;;;;;;;;10.00;9.00;;;;;11.87;42.56;98172.34;6307816;22;102456;-79
2022/01/20 00:38:00;;;;;;;;;12.00;9.75;;;;;11.89;42.57;98175.66;6280458;22;102295;-79
2022/01/20 00:40:27;;;;;;;;;14.00;9.00;;;;;11.89;42.48;98163.97;6305118;22;102256;-79
2022/01/20 00:42:54;;;;;;;;;11.50;10.00;;;;;11.89;43.00;98163.97;6312759;22;104187;-79
2022/01/20 00:45:21;;;;;;;;;11.50;9.25;;;;;11.88;42.51;98163.19;6305611;22;101922;-79
2022/01/20 00:47:48;;;;;;;;;15.00;11.25;;;;;11.87;42.74;98166.09;6246170;22;101992;-79
2022/01/20 00:50:15;;;;;;;;;9.75;9.50;;;;;11.88;42.71;98167.75;6300439;22;102431;-85
2022/01/20 00:52:42;;;;;;;;;6.00;3.75;;;;;11.86;42.51;98159.84;6305033;22;103995;-84
2022/01/20 00:55:09;;;;;;;;;13.25;10.25;;;;;11.84;42.79;98155.72;6300235;22;102536;-85
2022/01/20 00:57:36;;;;;;;;;13.00;9.50;;;;;11.85;42.48;98158.19;6299359;22;102639;-85
2022/01/20 01:00:05;;;;;;;;;15.00;12.00;;;;;11.84;42.72;98145.66;6304916;22;102342;-85
2022/01/20 01:02:33;;;;;;;;;13.00;10.50;;;;;11.85;42.77;98146.50;6274073;22;104045;-85
2022/01/20 01:05:00;;;;;;;;;10.00;9.50;;;;;11.83;42.44;98144.03;6249423;22;102160;-84
2022/01/20 01:07:45;;;;;;;;;9.75;8.00;;;;;11.83;42.46;98130.50;6290772;22;102486;-85
2022/01/20 01:10:21;;;;;;;;;13.50;9.75;;;;;11.84;42.58;98128.63;6202496;22;102485;-85
2022/01/20 01:12:54;;;;;;;;;10.00;10.00;;;;;11.84;42.52;98123.19;6307464;22;104552;-85
2022/01/20 01:15:26;;;;;;;;;8.25;7.00;;;;;11.81;42.51;98126.31;6281362;22;102310;-85
2022/01/20 01:21:10;;;;;;;;;11.75;8.00;;;;;11.80;42.45;98113.81;6295673;22;102271;-85
2022/01/20 01:23:37;;;;;;;;;9.75;9.00;;;;;11.79;42.52;98096.78;6299275;22;108914;-85
2022/01/20 01:26:05;;;;;;;;;8.50;8.00;;;;;11.80;42.60;98100.28;6305322;22;101883;-85
2022/01/20 01:28:33;;;;;;;;;9.00;8.50;;;;;11.80;42.28;98090.28;6308279;22;102062;-84
2022/01/20 01:34:05;;;;;;;;;9.75;9.75;;;;;11.81;42.42;98074.88;6244364;22;109627;-79
2022/01/20 01:36:47;;;;;;;;;11.25;9.00;;;;;11.81;42.56;98067.56;6301819;22;102100;-79
2022/01/20 01:39:14;;;;;;;;;10.00;9.00;;;;;11.81;42.00;98064.03;6266277;22;102652;-79
2022/01/20 01:41:42;;;;;;;;;7.75;7.25;;;;;11.81;42.78;98055.91;6305877;22;102757;-79
2022/01/20 01:44:10;;;;;;;;;14.00;8.00;;;;;11.81;42.65;98058.59;6294985;22;104178;-79
2022/01/20 01:46:38;;;;;;;;;5.50;5.25;;;;;11.82;42.62;98049.44;6285205;22;102260;-79
2022/01/20 01:49:05;;;;;;;;;8.75;8.00;;;;;11.80;42.36;98062.38;6271543;22;102228;-79
2022/01/20 01:51:33;;;;;;;;;11.50;9.00;;;;;11.80;42.76;98068.63;6268811;22;102110;-79
2022/01/20 01:54:00;;;;;;;;;9.50;9.50;;;;;11.80;42.66;98051.53;6270859;22;104254;-79
2022/01/20 01:56:27;;;;;;;;;11.00;10.00;;;;;11.80;42.61;98062.38;6282399;22;102078;-79
2022/01/20 01:58:55;;;;;;;;;10.00;9.25;;;;;11.78;42.49;98049.06;6293240;22;104970;-79
2022/01/20 02:01:22;;;;;;;;;9.00;8.00;;;;;11.80;42.15;98051.53;6274958;22;103591;-79
2022/01/20 02:03:58;;;;;;;;;7.25;6.00;;;;;11.76;42.80;98044.91;6293623;22;104072;-79
2022/01/20 02:20:14;;;;;;;;;10.00;8.75;;;;;11.76;42.68;98006.97;6283550;22;102092;-79
2022/01/20 02:22:41;;;;;;;;;8.00;6.75;;;;;11.75;42.55;98005.34;6270212;22;102373;-79
2022/01/20 02:25:25;;;;;;;;;7.50;7.00;;;;;11.75;42.13;97997.22;6279183;22;104016;-79
2022/01/20 02:27:53;;;;;;;;;5.50;5.50;;;;;11.75;42.66;97999.94;6288039;22;102088;-79
2022/01/20 02:30:22;;;;;;;;;7.00;7.00;;;;;11.76;42.52;97996.16;6286325;22;102567;-79
2022/01/20 02:32:56;;;;;;;;;6.50;6.50;;;;;11.77;42.31;97989.69;6274076;22;101942;-79
2022/01/20 02:35:25;;;;;;;;;7.25;5.75;;;;;11.77;42.13;97986.97;6291675;22;104154;-79
2022/01/20 02:37:59;;;;;;;;;8.00;7.00;;;;;11.75;42.36;97997.22;6270196;22;105181;-79
2022/01/20 02:45:48;;;;;;;;;5.00;4.50;;;;;11.73;42.35;97993.91;6288997;22;104176;-79
2022/01/20 02:48:15;;;;;;;;;5.00;4.50;;;;;11.74;42.50;97993.69;6293714;22;102279;-79
2022/01/20 02:50:42;;;;;;;;;5.00;5.00;;;;;11.78;42.46;97997.59;6274507;22;102447;-79
2022/01/20 02:53:09;;;;;;;;;6.75;6.50;;;;;11.79;42.19;97988.44;6300393;22;102463;-79
2022/01/20 02:55:36;;;;;;;;;6.50;4.25;;;;;11.72;41.88;97989.50;6292437;22;103956;-79
2022/01/20 02:58:03;;;;;;;;;5.75;4.25;;;;;11.72;42.37;97984.06;6276671;22;102426;-79
2022/01/20 03:00:31;;;;;;;;;5.75;5.75;;;;;11.72;42.69;97968.69;6284381;22;102163;-79
2022/01/20 03:03:03;;;;;;;;;5.25;4.00;;;;;11.74;42.34;97971.19;6274726;22;102180;-79
2022/01/20 03:05:33;;;;;;;;;6.25;5.50;;;;;11.77;42.68;97970.72;6304686;22;108561;-79
2022/01/20 03:08:00;;;;;;;;;6.75;5.25;;;;;11.83;42.49;97969.84;6304108;22;102264;-79
2022/01/20 03:10:28;;;;;;;;;7.75;6.00;;;;;11.84;42.15;97949.84;6302198;22;102318;-79
2022/01/20 03:12:56;;;;;;;;;5.00;5.00;;;;;11.88;42.37;97957.28;6309288;22;102482;-79
2022/01/20 03:15:24;;;;;;;;;6.75;4.25;;;;;11.90;42.27;97951.63;6272704;22;103959;-79
2022/01/20 03:17:51;;;;;;;;;4.75;4.00;;;;;11.96;42.16;97945.31;6305738;22;102244;-79
2022/01/20 03:20:18;;;;;;;;;7.00;4.75;;;;;12.00;42.41;97935.69;6305864;22;102425;-79
2022/01/20 03:22:45;;;;;;;;;5.50;4.00;;;;;12.05;42.13;97946.66;6301921;22;102402;-79
2022/01/20 03:25:13;;;;;;;;;3.25;3.00;;;;;12.06;42.05;97953.75;6304243;22;102815;-79
2022/01/20 03:27:40;;;;;;;;;3.50;3.25;;;;;12.10;42.34;97937.88;6305408;22;102418;-79
2022/01/20 03:30:07;;;;;;;;;5.25;3.50;;;;;12.13;41.80;97940.94;6277271;22;102397;-79
2022/01/20 03:32:35;;;;;;;;;4.50;4.00;;;;;12.17;42.35;97944.00;6301010;22;103743;-79
2022/01/20 03:35:03;;;;;;;;;4.00;4.00;;;;;12.20;42.54;97932.75;6311165;22;104087;-79
2022/01/20 03:37:31;;;;;;;;;3.50;3.00;;;;;12.23;41.92;97940.41;6305372;22;102310;-79
2022/01/20 03:39:58;;;;;;;;;4.25;3.75;;;;;12.24;42.31;97937.47;6262782;22;102472;-79
2022/01/20 03:42:25;;;;;;;;;6.00;4.00;;;;;12.28;42.30;97932.44;6302566;22;102559;-79
2022/01/20 03:44:52;;;;;;;;;4.00;4.00;;;;;12.29;41.76;97943.00;6301264;22;104059;-79
2022/01/20 03:47:22;;;;;;;;;3.25;2.75;;;;;12.32;42.11;97931.75;6304586;22;102430;-79
2022/01/20 03:50:05;;;;;;;;;6.00;3.75;;;;;12.35;41.78;97925.84;6297949;22;105171;-79
2022/01/20 03:52:32;;;;;;;;;3.75;3.00;;;;;12.38;41.70;97922.66;6309843;22;102629;-79
2022/01/20 03:54:59;;;;;;;;;3.00;3.00;;;;;12.40;42.17;97923.28;6300341;22;108456;-79
2022/01/20 03:57:27;;;;;;;;;3.00;2.75;;;;;12.42;41.82;97920.34;6302290;22;102446;-79
2022/01/20 03:59:54;;;;;;;;;4.25;3.00;;;;;12.44;42.08;97924.47;6273789;22;102322;-79
2022/01/20 04:02:21;;;;;;;;;3.00;2.75;;;;;12.46;41.68;97916.97;6295893;22;102062;-79
2022/01/20 04:04:48;;;;;;;;;4.25;3.25;;;;;12.48;41.57;97916.72;6297103;22;104114;-79
2022/01/20 04:07:15;;;;;;;;;3.25;2.25;;;;;12.47;41.70;97907.75;6279877;22;102204;-79
2022/01/20 04:09:44;;;;;;;;;6.00;3.75;;;;;12.48;41.50;97914.00;6306161;22;102142;-79
2022/01/20 04:12:11;;;;;;;;;2.25;2.00;;;;;12.49;41.48;97908.34;6296206;22;102104;-79
2022/01/20 04:14:45;;;;;;;;;4.50;3.00;;;;;12.50;41.55;97901.03;6296049;22;104007;-79
2022/01/20 04:17:18;;;;;;;;;3.25;3.25;;;;;12.50;42.06;97912.72;6299946;22;102244;-79
2022/01/20 04:19:45;;;;;;;;;2.00;2.00;;;;;12.52;41.39;97907.06;6304698;22;102199;-79
2022/01/20 04:22:12;;;;;;;;;3.50;3.00;;;;;12.53;41.44;97895.97;6297735;22;103040;-79
2022/01/20 04:24:39;;;;;;;;;4.00;3.00;;;;;12.52;42.25;97899.75;6269917;22;104737;-79
2022/01/20 04:27:06;;;;;;;;;7.00;4.00;;;;;12.52;42.35;97894.31;6283542;22;102467;-79
2022/01/20 04:29:34;;;;;;;;;2.50;2.50;;;;;12.53;41.85;97887.84;6282339;22;102299;-79
2022/01/20 04:32:01;;;;;;;;;3.50;3.50;;;;;12.56;41.85;97888.47;6252113;22;102208;-79
2022/01/20 04:34:28;;;;;;;;;3.00;2.25;;;;;12.52;41.87;97882.63;6266517;22;103312;-79
2022/01/20 04:36:57;;;;;;;;;4.00;3.00;;;;;12.55;41.20;97875.94;6305782;22;102805;-79
2022/01/20 04:39:28;;;;;;;;;4.25;2.75;;;;;12.54;42.04;97875.13;6290549;22;102121;-79
2022/01/20 04:41:55;;;;;;;;;2.00;2.00;;;;;12.54;42.06;97872.41;6278997;22;102724;-79
2022/01/20 04:57:51;;;;;;;;;3.00;3.00;;;;;12.51;41.45;97876.41;6275171;22;101955;-79
2022/01/20 05:00:18;;;;;;;;;4.00;3.00;;;;;12.50;41.50;97874.75;6269628;22;102467;-79
2022/01/20 05:02:45;;;;;;;;;3.00;3.00;;;;;12.50;42.05;97869.34;6301487;22;102027;-79
2022/01/20 05:05:12;;;;;;;;;3.00;3.00;;;;;12.49;41.85;97858.72;6279777;22;103992;-79
2022/01/20 05:07:39;;;;;;;;;4.00;3.00;;;;;12.48;41.89;97857.06;6272297;22;102610;-79
2022/01/20 05:10:10;;;;;;;;;3.00;3.00;;;;;12.48;41.95;97868.72;6275186;22;102385;-79
2022/01/20 05:13:02;;;;;;;;;2.75;2.00;;;;;12.46;41.35;97867.31;6273728;22;102056;-79
2022/01/20 05:15:25;;;;;;;;;2.75;1.75;;;;;12.41;42.64;97872.59;6273266;22;103779;-79
2022/01/20 05:17:52;;;;;;;;;2.00;2.00;;;;;12.39;42.12;97872.00;6279951;22;102222;-79
2022/01/20 05:20:19;;;;;;;;;2.00;2.00;;;;;12.36;41.43;97857.03;6270981;22;102407;-79
2022/01/20 05:22:46;;;;;;;;;4.50;3.75;;;;;12.36;41.51;97862.44;6300608;22;102782;-79
2022/01/20 05:25:13;;;;;;;;;4.00;3.00;;;;;12.37;41.24;97852.44;6268553;22;103951;-79
2022/01/20 05:27:40;;;;;;;;;2.75;2.00;;;;;12.37;41.98;97847.00;6277366;22;102379;-79
2022/01/20 05:30:08;;;;;;;;;4.00;3.00;;;;;12.37;41.70;97842.41;6280499;22;101994;-79
2022/01/20 05:32:35;;;;;;;;;2.50;2.50;;;;;12.37;42.15;97839.72;6278003;22;102251;-79
2022/01/20 05:35:02;;;;;;;;;6.00;4.00;;;;;12.35;41.72;97847.22;6278627;22;109692;-79
2022/01/20 05:37:29;;;;;;;;;3.00;3.00;;;;;12.33;41.66;97841.22;6275058;22;102255;-79
2022/01/20 05:39:56;;;;;;;;;3.00;3.00;;;;;12.35;42.04;97838.28;6287907;22;102331;-85
2022/01/20 05:42:23;;;;;;;;;4.75;4.00;;;;;12.32;41.30;97845.00;6281492;22;102555;-85
2022/01/20 05:44:51;;;;;;;;;3.00;2.00;;;;;12.32;41.51;97842.28;6272659;22;104362;-85
2022/01/20 05:47:26;;;;;;;;;4.00;3.00;;;;;12.33;41.53;97856.66;6300140;22;102349;-79
2022/01/20 05:49:53;;;;;;;;;4.00;3.00;;;;;12.31;41.68;97851.47;6264925;22;102577;-85
2022/01/20 05:52:20;;;;;;;;;2.25;2.25;;;;;12.30;41.47;97846.25;6275261;22;102058;-85
2022/01/20 05:54:47;;;;;;;;;4.00;2.50;;;;;12.31;41.56;97847.91;6262592;22;104111;-85
2022/01/20 05:57:14;;;;;;;;;3.75;3.00;;;;;12.30;42.01;97852.50;6263098;22;102178;-85
2022/01/20 05:59:41;;;;;;;;;0.25;0.00;;;;;12.28;41.68;97843.81;6272196;22;103716;-85
2022/01/20 06:02:24;;;;;;;;;3.00;2.00;;;;;12.24;42.47;97849.91;6272770;22;102688;-84
2022/01/20 06:04:51;;;;;;;;;2.00;1.00;;;;;12.20;41.91;97846.84;6267002;22;104033;-84
2022/01/20 06:07:20;;;;;;;;;3.00;2.00;;;;;12.19;42.51;97849.78;6258449;22;102457;-85
2022/01/20 06:09:47;;;;;;;;;2.50;2.50;;;;;12.18;41.64;97864.38;6268135;22;102787;-85
2022/01/20 06:12:14;;;;;;;;;3.00;3.00;;;;;12.15;41.77;97848.59;6277040;22;102004;-84
2022/01/20 06:14:41;;;;;;;;;3.00;3.00;;;;;12.14;42.63;97842.34;6262352;22;104051;-85
2022/01/20 06:17:08;;;;;;;;;4.50;3.25;;;;;12.15;42.55;97841.28;6246892;22;105157;-83
2022/01/20 06:19:35;;;;;;;;;2.00;2.00;;;;;12.12;42.19;97855.28;6275430;22;102065;-84
2022/01/20 06:22:02;;;;;;;;;3.00;3.00;;;;;12.12;42.44;97854.44;6270224;22;102388;-85
2022/01/20 06:24:29;;;;;;;;;3.00;3.00;;;;;12.14;41.63;97849.63;6256880;22;104115;-85
2022/01/20 06:26:56;;;;;;;;;1.25;1.25;;;;;12.15;42.31;97854.00;6272041;22;102072;-85
2022/01/20 06:29:25;;;;;;;;;4.00;4.00;;;;;12.14;42.26;97850.47;6260242;22;102208;-84
2022/01/20 06:31:52;;;;;;;;;4.00;2.75;;;;;12.13;41.87;97856.94;6270799;22;102338;-79
2022/01/20 06:34:19;;;;;;;;;2.50;2.00;;;;;12.13;41.70;97846.09;6273921;22;104186;-79
2022/01/20 06:36:47;;;;;;;;;3.00;3.00;;;;;12.13;42.04;97843.38;6274688;22;102254;-79
2022/01/20 06:39:14;;;;;;;;;4.25;3.00;;;;;12.12;41.56;97828.16;6296802;22;102414;-79
2022/01/20 06:41:47;;;;;;;;;4.00;4.00;;;;;12.13;41.72;97827.13;6273178;22;102004;-79
2022/01/20 06:44:14;;;;;;;;;3.00;2.00;;;;;12.10;41.98;97824.88;6279524;22;103828;-79
2022/01/20 06:46:42;;;;;;;;;2.25;2.00;;;;;12.10;42.08;97819.47;6277601;22;102467;-79
2022/01/20 06:49:10;;;;;;;;;4.00;2.50;;;;;12.10;41.82;97819.47;6270801;22;102246;-79
2022/01/20 06:51:37;;;;;;;;;3.50;2.25;;;;;12.05;42.47;97813.91;6274880;22;102622;-79
2022/01/20 06:54:04;;;;;;;;;2.50;2.50;;;;;12.05;42.10;97822.03;6279526;22;108825;-79
2022/01/20 06:56:31;;;;;;;;;3.00;2.00;;;;;12.03;42.15;97826.84;6308878;22;102252;-79
2022/01/20 06:59:11;;;;;;;;;3.75;3.00;;;;;12.05;41.86;97849.13;6312086;22;102403;-79
2022/01/20 07:01:38;;;;;;;;;2.25;2.25;;;;;12.07;42.03;97849.69;6311115;22;102143;-80
2022/01/20 07:04:06;;;;;;;;;2.00;2.00;;;;;12.11;41.68;97869.06;6311338;22;104477;-79
2022/01/20 07:06:33;;;;;;;;;3.25;3.25;;;;;12.13;41.80;97870.47;6310751;22;102436;-79
2022/01/20 07:09:00;;;;;;;;;3.00;2.00;;;;;12.15;41.68;97872.97;6308144;22;102411;-79
2022/01/20 07:11:27;;;;;;;;;3.50;2.75;;;;;12.14;41.48;97858.59;6309804;22;109342;-80
2022/01/20 07:13:54;;;;;;;;;3.00;2.00;;;;;12.17;41.77;97862.72;6302029;22;103983;-83
2022/01/20 07:16:21;;;;;;;;;3.00;2.25;;;;;12.16;41.62;97859.16;6302799;22;102462;-84
2022/01/20 07:18:50;;;;;;;;;2.00;2.00;;;;;12.16;42.27;97861.88;6308605;22;102281;-84
2022/01/20 07:21:18;;;;;;;;;5.00;3.00;;;;;12.15;41.50;97876.50;6308564;22;104990;-84
2022/01/20 07:23:45;;;;;;;;;2.00;2.00;;;;;12.18;42.51;97886.06;6303301;22;104004;-84
2022/01/20 07:26:12;;;;;;;;;3.00;2.00;;;;;12.15;42.15;97890.06;6307827;22;102307;-79
2022/01/20 07:28:39;;;;;;;;;3.00;2.50;;;;;12.18;41.72;97886.06;6309975;22;102309;-79
2022/01/20 07:31:07;;;;;;;;;3.00;3.00;;;;;12.16;42.42;97891.69;6277167;22;102417;-79
2022/01/20 07:33:34;;;;;;;;;1.00;1.00;;;;;12.17;41.84;97890.66;6305513;22;109006;-79
2022/01/20 07:36:01;;;;;;;;;2.00;2.00;;;;;12.20;41.60;97884.78;6308613;22;102442;-79
2022/01/20 07:38:28;;;;;;;;;2.00;1.00;;;;;12.23;42.46;97884.31;6280689;22;101925;-79
2022/01/20 07:40:55;;;;;;;;;2.00;1.00;;;;;12.28;41.86;97880.91;6300050;22;102167;-79
2022/01/20 07:43:22;;;;;;;;;2.00;2.00;;;;;12.32;41.90;97884.81;6293091;22;104011;-79
2022/01/20 07:45:49;;;;;;;;;1.25;1.25;;;;;12.35;41.62;97866.22;6306827;22;102366;-79
2022/01/20 07:48:16;;;;;;;;;2.00;2.00;;;;;12.38;41.70;97868.44;6305416;22;102198;-79
2022/01/20 07:50:43;;;;;;;;;2.75;2.00;;;;;12.41;42.23;97870.72;6305499;22;102156;-79
2022/01/20 07:53:10;;;;;;;;;1.50;1.50;;;;;12.44;41.83;97874.84;6308845;22;104173;-79
2022/01/20 07:55:38;;;;;;;;;2.00;2.00;;;;;12.46;42.23;97881.72;6311202;22;102322;-79
2022/01/20 07:58:06;;;;;;;;;2.00;2.00;;;;;12.49;42.10;97883.94;6269372;22;102214;-79
2022/01/20 08:00:33;;;;;;;;;1.00;1.00;;;;;12.51;41.34;97887.28;6298955;22;102136;-79
2022/01/20 08:03:00;;;;;;;;;3.00;2.00;;;;;12.56;41.90;97880.31;6240217;22;103976;-79
2022/01/20 08:05:27;;;;;;;;;2.00;2.00;;;;;12.56;42.33;97883.88;6223179;22;102433;-79
2022/01/20 08:07:54;;;;;;;;;3.00;2.00;;;;;12.61;42.06;97891.31;6263892;22;102452;-84
2022/01/20 08:10:21;;;;;;;;;1.75;1.00;;;;;12.63;42.45;97886.47;6272645;22;102583;-84
2022/01/20 08:12:48;;;;;;;;;1.25;1.25;;;;;12.64;42.07;97880.81;6309792;22;104110;-84
2022/01/20 08:15:16;;;;;;;;;3.25;2.00;;;;;12.68;42.30;97892.84;6310986;22;102291;-84
2022/01/20 08:17:43;;;;;;;;;2.25;2.00;;;;;12.68;41.77;97892.84;6267348;22;102190;-84
2022/01/20 08:20:11;;;;;;;;;2.75;2.25;;;;;12.72;41.68;97898.63;6300193;22;102165;-84
2022/01/20 08:22:38;;;;;;;;;2.00;1.00;;;;;12.74;41.60;97901.97;6300015;22;104144;-84
2022/01/20 08:25:13;;;;;;;;;3.25;2.00;;;;;12.77;41.76;97909.63;6285576;22;102091;-85
2022/01/20 08:27:41;;;;;;;;;3.75;2.50;;;;;12.80;42.24;97906.44;6301526;22;102441;-84
2022/01/20 08:30:11;;;;;;;;;2.50;2.00;;;;;12.81;41.22;97886.38;6317172;22;104755;-80
2022/01/20 08:32:38;;;;;;;;;1.75;1.00;;;;;12.85;42.06;97888.41;6307300;22;108997;-84
2022/01/20 08:35:06;;;;;;;;;2.00;1.00;;;;;12.89;42.29;97894.19;6308970;22;102471;-79
2022/01/20 08:37:33;;;;;;;;;2.50;2.00;;;;;12.92;41.36;97888.31;6299938;22;102125;-85
2022/01/20 08:40:03;;;;;;;;;2.75;2.00;;;;;12.94;41.82;97870.72;6312046;22;102240;-84
2022/01/20 08:42:30;;;;;;;;;3.00;2.50;;;;;12.96;41.79;97859.66;6307930;22;103381;-85
2022/01/20 08:44:57;;;;;;;;;1.00;0.75;;;;;12.98;41.39;97846.66;6299542;22;102278;-84
2022/01/20 08:47:24;;;;;;;;;1.75;1.25;;;;;13.01;41.92;97837.25;6284239;22;102169;-85
2022/01/20 08:49:51;;;;;;;;;1.00;1.00;;;;;13.03;41.23;97829.66;6300334;22;102590;-84
2022/01/20 08:52:18;;;;;;;;;2.00;2.00;;;;;13.06;41.10;97818.38;6277815;22;103957;-84
2022/01/20 08:54:47;;;;;;;;;3.00;3.00;;;;;13.08;41.87;97817.06;6308338;22;102268;-85
2022/01/20 08:57:14;;;;;;;;;1.75;1.00;;;;;13.10;41.56;97809.50;6308134;22;108984;-85
2022/01/20 08:59:42;;;;;;;;;1.25;1.00;;;;;13.11;41.50;97797.59;6307524;22;102473;-84
2022/01/20 09:02:09;;;;;;;;;1.00;1.00;;;;;13.14;41.90;97794.44;6309001;22;103905;-80
2022/01/20 09:04:37;;;;;;;;;2.25;1.75;;;;;13.16;41.02;97796.91;6283555;22;102269;-79
2022/01/20 09:07:04;;;;;;;;;1.50;1.50;;;;;13.18;41.03;97790.19;6309666;22;111713;-79
2022/01/20 09:09:33;;;;;;;;;2.00;2.00;;;;;13.20;41.87;97771.75;6311230;22;102497;-79
2022/01/20 09:12:16;;;;;;;;;1.75;1.75;;;;;13.22;41.55;97769.63;6304126;22;103981;-79
2022/01/20 09:17:31;;;;;;;;;1.00;1.00;;;;;13.26;41.63;97776.25;6304079;22;102020;-85
2022/01/20 09:19:58;;;;;;;;;1.75;1.75;;;;;13.30;41.38;97771.16;6310254;22;102345;-84
2022/01/20 09:22:28;;;;;;;;;2.00;2.00;;;;;13.33;41.27;97768.78;6311807;22;103921;-79
2022/01/20 09:24:55;;;;;;;;;2.25;1.00;;;;;13.35;41.88;97760.41;6269246;22;102464;-79
2022/01/20 09:27:22;;;;;;;;;2.00;2.00;;;;;13.37;41.86;97761.00;6301487;22;101869;-79
2022/01/20 09:29:49;;;;;;;;;2.75;2.00;;;;;13.38;41.11;97747.16;6301731;22;102053;-80
2022/01/20 09:32:17;;;;;;;;;1.75;1.75;;;;;13.40;41.00;97745.06;6302692;22;103932;-80
2022/01/20 09:34:45;;;;;;;;;1.75;1.00;;;;;13.42;41.49;97746.72;6303715;22;102426;-79
2022/01/20 09:37:13;;;;;;;;;2.00;2.00;;;;;13.44;41.18;97733.69;6297895;22;102190;-79
2022/01/20 09:39:40;;;;;;;;;4.00;2.00;;;;;13.46;41.30;97734.28;6286972;22;102592;-84
2022/01/20 09:42:07;;;;;;;;;1.75;1.00;;;;;13.47;41.08;97741.34;6308586;22;108610;-84
2022/01/20 09:44:34;;;;;;;;;0.75;0.75;;;;;13.49;40.68;97750.09;6304055;22;102138;-84
2022/01/20 09:47:01;;;;;;;;;2.75;2.00;;;;;13.51;40.75;97740.63;6274698;22;102223;-85
2022/01/20 09:49:28;;;;;;;;;2.00;2.00;;;;;13.52;41.80;97725.16;6296448;22;101982;-85
2022/01/20 09:51:56;;;;;;;;;2.25;1.00;;;;;13.57;41.51;97730.69;6300394;22;104265;-84
2022/01/20 09:54:23;;;;;;;;;2.00;2.00;;;;;13.58;40.89;97725.03;6306796;22;102385;-85
2022/01/20 09:56:51;;;;;;;;;2.00;2.00;;;;;13.60;41.29;97719.38;6295731;22;102098;-85
2022/01/20 09:59:18;;;;;;;;;2.50;2.00;;;;;13.60;41.55;97716.66;6298270;22;102007;-84
2022/01/20 10:01:47;;;;;;;;;1.00;1.00;;;;;13.63;41.01;97708.03;6277806;22;104429;-84
2022/01/20 10:04:34;;;;;;;;;2.00;1.00;;;;;13.64;40.62;97710.50;6303934;22;102449;-79
2022/01/20 10:07:04;;;;;;;;;1.25;1.25;;;;;13.65;40.71;97714.00;6303010;22;102299;-79
2022/01/20 10:09:38;;;;;;;;;2.00;1.75;;;;;13.67;40.87;97711.91;6286376;22;102138;-79
2022/01/20 10:12:06;;;;;;;;;2.00;2.00;;;;;13.68;41.49;97691.81;6305822;22;112380;-80
2022/01/20 10:14:47;;;;;;;;;3.00;2.00;;;;;13.69;40.71;97699.72;6306306;22;102135;-79
2022/01/20 10:17:29;;;;;;;;;2.25;2.25;;;;;13.71;40.96;97688.59;6305187;22;104904;-79
2022/01/20 10:20:05;;;;;;;;;0.00;0.00;;;;;13.71;41.41;97689.44;6310944;22;102290;-79
2022/01/20 10:22:33;;;;;;;;;3.00;2.00;;;;;13.72;40.93;97676.69;6308095;22;103892;-79
2022/01/20 10:25:08;;;;;;;;;2.25;1.75;;;;;13.73;40.74;97675.63;6300925;22;111401;-79
2022/01/20 10:27:47;;;;;;;;;2.75;1.25;;;;;13.74;41.23;97658.22;6311582;22;102345;-79
2022/01/20 10:30:14;;;;;;;;;2.00;2.00;;;;;13.76;41.06;97661.53;6307924;22;102393;-79
2022/01/20 10:32:48;;;;;;;;;2.00;1.75;;;;;13.77;41.26;97655.03;6279031;22;104022;-79
2022/01/20 10:35:16;;;;;;;;;3.00;2.00;;;;;13.78;40.63;97652.06;6272464;22;102289;-79
2022/01/20 10:38:00;;;;;;;;;2.00;2.00;;;;;13.79;41.11;97640.13;6278529;22;102093;-79
2022/01/20 10:40:27;;;;;;;;;1.50;1.50;;;;;13.81;41.50;97637.19;6270760;22;102188;-79
2022/01/20 10:42:54;;;;;;;;;2.75;2.75;;;;;13.81;41.36;97631.75;6302170;22;104009;-79
2022/01/20 10:45:28;;;;;;;;;1.75;1.25;;;;;13.82;41.05;97626.03;6309885;22;102338;-79
2022/01/20 10:47:59;;;;;;;;;2.75;2.50;;;;;13.84;40.67;97625.81;6304991;22;110859;-79
2022/01/20 10:50:28;;;;;;;;;3.00;2.75;;;;;13.85;40.83;97632.91;6276573;22;102354;-79
2022/01/20 10:52:55;;;;;;;;;2.00;2.00;;;;;13.84;40.80;97659.25;6282316;22;104751;-79
2022/01/20 10:55:27;;;;;;;;;2.00;2.00;;;;;13.87;41.25;97701.41;6305468;22;102132;-79
2022/01/20 10:57:57;;;;;;;;;2.00;1.00;;;;;13.88;40.77;97768.28;6308431;22;102763;-79
2022/01/20 11:00:25;;;;;;;;;2.00;2.00;;;;;13.90;40.49;97792.50;6280596;22;102567;-80
2022/01/20 11:02:57;;;;;;;;;6.25;3.00;;;;;13.90;40.72;97781.63;6310639;22;104044;-79
2022/01/20 11:05:25;;;;;;;;;2.50;2.25;;;;;13.90;40.51;97771.59;6306315;22;102173;-79
2022/01/20 11:07:52;;;;;;;;;3.50;2.25;;;;;13.91;40.59;97778.69;6308243;22;102349;-79
2022/01/20 11:10:19;;;;;;;;;3.50;2.75;;;;;13.91;40.55;97794.97;6310561;22;102132;-84
2022/01/20 11:12:46;;;;;;;;;3.00;2.50;;;;;13.92;40.34;97784.91;6306590;22;103999;-84
2022/01/20 11:15:16;;;;;;;;;3.50;3.00;;;;;13.94;40.85;97777.34;6310353;22;102505;-84
2022/01/20 11:17:43;;;;;;;;;2.75;2.75;;;;;13.95;40.77;97768.97;6287155;22;102329;-84
2022/01/20 11:20:16;;;;;;;;;1.00;1.00;;;;;13.96;40.86;97776.03;6283365;22;103727;-80
2022/01/20 11:23:09;;;;;;;;;1.75;1.75;;;;;13.98;40.92;97765.75;6303128;22;108858;-79
2022/01/20 11:25:39;;;;;;;;;2.00;1.75;;;;;13.98;40.35;97757.59;6303218;22;102255;-79
2022/01/20 11:28:12;;;;;;;;;1.25;1.25;;;;;14.00;40.71;97749.22;6307757;22;102442;-79
2022/01/20 11:30:42;;;;;;;;;2.00;1.00;;;;;13.96;40.79;97740.69;6309389;22;102486;-79
2022/01/20 11:33:13;;;;;;;;;1.75;1.75;;;;;14.01;40.37;97746.22;6298041;22;108646;-79
2022/01/20 11:36:08;;;;;;;;;1.00;1.00;;;;;14.01;40.43;97746.22;6271958;22;102282;-79
2022/01/20 11:39:03;;;;;;;;;1.25;1.00;;;;;14.02;40.91;97737.00;6309922;22;102025;-79
2022/01/20 11:41:36;;;;;;;;;1.25;1.25;;;;;14.04;40.78;97725.91;6276646;22;102086;-79
2022/01/20 11:44:32;;;;;;;;;2.50;1.00;;;;;14.04;40.45;97723.19;6283816;22;104238;-79
2022/01/20 11:47:07;;;;;;;;;2.75;2.00;;;;;14.05;40.62;97725.66;6263621;22;102059;-79
2022/01/20 11:49:39;;;;;;;;;3.50;2.00;;;;;14.06;40.98;97727.31;6307017;22;102394;-79
2022/01/20 11:52:08;;;;;;;;;3.00;2.50;;;;;14.06;40.51;97737.34;6276943;22;102211;-79
2022/01/20 11:54:43;;;;;;;;;2.00;2.00;;;;;14.07;40.94;97739.84;6301129;22;104102;-79
2022/01/20 11:57:14;;;;;;;;;2.50;1.00;;;;;14.08;40.83;97749.66;6302811;22;102329;-79
2022/01/20 11:59:43;;;;;;;;;2.00;2.00;;;;;14.08;41.14;97752.34;6277228;22;102145;-79
2022/01/20 12:02:32;;;;;;;;;1.50;1.00;;;;;14.10;41.21;97739.34;6272699;22;102180;-80
2022/01/20 12:05:01;;;;;;;;;1.50;1.50;;;;;14.10;40.70;97747.47;6268898;22;108751;-79
2022/01/20 12:07:29;;;;;;;;;2.75;1.25;;;;;14.12;40.93;97752.69;6303418;22;102087;-79
2022/01/20 12:10:27;;;;;;;;;1.00;1.00;;;;;14.13;40.37;97776.09;6294456;22;102303;-85
2022/01/20 12:13:04;;;;;;;;;1.00;1.00;;;;;14.13;40.82;97774.22;6307076;22;102425;-84
2022/01/20 12:15:50;;;;;;;;;3.00;2.00;;;;;14.14;40.62;97789.44;6275703;22;108914;-84
2022/01/20 12:18:17;;;;;;;;;1.00;1.00;;;;;14.14;40.96;97786.72;6301599;22;102150;-84
2022/01/20 12:20:44;;;;;;;;;1.25;1.25;;;;;14.14;40.54;97799.47;6307435;22;102401;-84
2022/01/20 12:23:11;;;;;;;;;2.00;1.00;;;;;14.14;40.77;97777.72;6263862;22;105424;-85
2022/01/20 12:25:38;;;;;;;;;4.00;2.00;;;;;14.15;40.43;97776.66;6299895;22;108788;-80
2022/01/20 12:28:12;;;;;;;;;2.00;1.00;;;;;14.15;40.38;97761.19;6302743;22;102361;-79
2022/01/20 12:30:46;;;;;;;;;2.50;2.00;;;;;14.16;40.22;97762.84;6309684;22;102492;-79
2022/01/20 12:33:19;;;;;;;;;1.50;1.50;;;;;14.15;40.73;97761.19;6309909;22;102380;-79
2022/01/20 12:35:50;;;;;;;;;1.25;1.00;;;;;14.17;40.27;97761.78;6301214;22;104008;-80
2022/01/20 12:38:28;;;;;;;;;1.25;1.25;;;;;14.17;40.91;97775.38;6280590;22;102304;-79